EVVA

Details ICAO EVVA (VTS)
Name VENTSPILS INTL
Region Latvia
Timezone Europe/Riga (UTC+3.0)
Plans Departing 4
Arriving 14
Stats Elevation 19 ft / 6 m (AMSL)
Location 57.357800° 21.544165°
Runways 1
Magnetic Variation 7.024° E
Sunrise 2018-05-22 02:02:08 UTC / 2018-05-22 05:02:08 Local
Sunset 2018-05-22 19:01:42 UTC / 2018-05-22 22:01:42 Local
Advertisement - Login to hide

Runways

ID Width Length Bearing (true) Bearing (mag) Surface Threshold Offset Overrun Length
03 105 ft / 32 m 4,251 ft / 1,296 m 35.42° 28.40° Asphalt 0 ft / 0 m 0 ft / 0 m
21 105 ft / 32 m 4,251 ft / 1,296 m 215.43° 208.41° Asphalt 0 ft / 0 m 0 ft / 0 m

Map

Weather


0- 5 10 15 20 25 30 35+ Temperature / ° C

Clouds and Precipitation
Forecast for 2018-05-22 12:00 UTC. Updated 5 hours ago

Ground ~20,000 ft ~40,000 ft Winds

METAR

EVVA 221620Z AUTO VRB03KT CAVOK 17/09 Q1019

TAF

Not found

Frequencies

Tower 123.90 MHz AFIS
Warning: Do not use this data for real-world aviation or navigation. No guarantee of current accuracy is given.